Time;durP1;ratioP1;P1;durP2;ratioP2;P2;SDS_P1;SDS_P2;PMS_P1;PMS_P2;Temp;Humidity;BMP_temperature;BMP_pressure;BME280_temperature;BME280_humidity;BME280_pressure;Samples;Min_cycle;Max_cycle;Signal;HPM_P1;HPM_P2
2022/07/18 00:02:15;;;;;;;;;2.60;2.60;;;;;23.19;26.93;100161.72;5088412;28;8844;-78
2022/07/18 00:04:44;;;;;;;;;0.80;0.80;;;;;23.19;26.80;100153.75;5055202;28;8851;-76
2022/07/18 00:07:14;;;;;;;;;1.60;1.60;;;;;23.20;26.66;100159.97;5075679;28;8855;-76
2022/07/18 00:09:43;;;;;;;;;1.80;1.80;;;;;23.17;26.85;100160.94;5089833;28;8851;-76
2022/07/18 00:12:14;;;;;;;;;1.40;0.80;;;;;23.17;26.65;100158.28;5088512;28;8875;-80
2022/07/18 00:14:43;;;;;;;;;2.00;2.00;;;;;23.18;26.81;100164.47;5075271;28;8859;-80
2022/07/18 00:17:12;;;;;;;;;1.60;1.60;;;;;23.20;26.72;100154.63;5071528;28;8843;-79
2022/07/18 00:19:41;;;;;;;;;2.00;2.00;;;;;23.17;26.81;100160.94;5070755;28;8871;-76
2022/07/18 00:22:10;;;;;;;;;2.80;2.80;;;;;23.18;27.16;100164.47;5087548;28;8871;-81
2022/07/18 00:24:38;;;;;;;;;1.80;1.80;;;;;23.13;27.35;100162.84;5087092;28;8871;-80
2022/07/18 00:27:07;;;;;;;;;2.40;2.40;;;;;23.15;27.73;100163.66;5088843;28;9019;-79
2022/07/18 00:29:38;;;;;;;;;4.40;3.80;;;;;23.16;27.48;100159.22;5087363;28;8844;-79
2022/07/18 00:32:09;;;;;;;;;3.20;3.20;;;;;23.16;27.86;100164.53;5087492;28;8844;-79
2022/07/18 00:34:38;;;;;;;;;5.20;4.20;;;;;23.13;28.14;100168.19;5070752;28;8954;-78
2022/07/18 00:37:07;;;;;;;;;2.80;2.80;;;;;23.10;28.08;100164.78;5088959;28;8851;-78
2022/07/18 00:39:36;;;;;;;;;3.00;3.00;;;;;23.07;28.38;100160.47;5069953;28;8847;-81
2022/07/18 00:42:04;;;;;;;;;3.40;3.00;;;;;23.04;27.89;100165.91;5106472;28;8841;-78
2022/07/18 00:44:33;;;;;;;;;2.40;2.40;;;;;23.03;27.84;100169.50;5107606;28;8860;-78
2022/07/18 00:47:04;;;;;;;;;3.20;3.00;;;;;23.04;28.48;100162.38;5107706;28;8982;-79
2022/07/18 00:49:32;;;;;;;;;2.60;2.60;;;;;23.02;27.98;100173.06;5060409;28;8939;-79
2022/07/18 00:52:01;;;;;;;;;2.20;1.80;;;;;23.00;27.78;100171.41;5094163;28;8891;-75
2022/07/18 00:54:31;;;;;;;;;2.60;2.60;;;;;22.98;27.85;100167.00;5111938;28;8829;-76
2022/07/18 00:57:00;;;;;;;;;2.80;2.80;;;;;22.97;28.17;100167.09;5100655;28;8958;-76
2022/07/18 01:02:14;;;;;;;;;3.00;3.00;;;;;22.92;27.79;100159.28;5090160;28;8876;-78
2022/07/18 01:04:44;;;;;;;;;3.00;3.00;;;;;22.91;28.13;100170.88;5091368;28;8961;-78
2022/07/18 01:07:12;;;;;;;;;2.40;2.40;;;;;22.90;28.04;100165.59;5091661;28;8844;-76
2022/07/18 01:09:41;;;;;;;;;1.00;1.00;;;;;22.89;27.73;100167.41;5075093;28;8986;-78
2022/07/18 01:12:10;;;;;;;;;2.00;2.00;;;;;22.90;27.74;100165.59;5074581;27;8960;-76
2022/07/18 01:14:38;;;;;;;;;2.00;2.00;;;;;22.89;28.20;100166.50;5074742;28;9708;-78
2022/07/18 01:17:19;;;;;;;;;3.00;3.00;;;;;22.90;28.24;100171.78;5073171;28;8846;-77
2022/07/18 01:19:47;;;;;;;;;3.60;3.20;;;;;22.89;28.43;100169.19;5076965;28;8948;-77
2022/07/18 01:22:20;;;;;;;;;5.80;4.00;;;;;22.88;28.85;100170.97;5096063;28;8906;-79
2022/07/18 01:24:49;;;;;;;;;3.80;3.80;;;;;22.86;28.36;100167.53;5091412;28;8896;-78
2022/07/18 01:27:20;;;;;;;;;3.80;3.80;;;;;22.82;29.11;100167.72;5089395;28;8868;-77
2022/07/18 01:29:50;;;;;;;;;4.60;3.00;;;;;22.80;28.33;100173.09;5072304;27;8857;-76
2022/07/18 01:32:20;;;;;;;;;4.40;4.40;;;;;22.80;29.14;100167.78;5051778;28;8834;-77
2022/07/18 01:34:50;;;;;;;;;4.00;4.00;;;;;22.80;28.53;100175.75;5052284;28;8849;-77
2022/07/18 01:37:19;;;;;;;;;3.00;3.00;;;;;22.78;29.06;100170.50;5069049;28;8837;-78
2022/07/18 01:39:48;;;;;;;;;3.20;3.20;;;;;22.79;28.84;100168.69;5068798;28;8873;-76
2022/07/18 01:42:17;;;;;;;;;3.60;3.60;;;;;22.77;29.50;100162.56;5012124;28;8865;-79
2022/07/18 01:44:46;;;;;;;;;4.00;4.00;;;;;22.75;29.21;100161.78;5011810;28;8883;-77
2022/07/18 01:47:15;;;;;;;;;3.20;2.80;;;;;22.73;29.09;100161.84;4985466;28;8852;-78
2022/07/18 01:49:44;;;;;;;;;5.20;5.20;;;;;22.71;30.70;100166.34;5015065;28;8857;-77
2022/07/18 01:52:12;;;;;;;;;3.60;3.60;;;;;22.68;29.08;100169.13;5030059;28;8858;-77
2022/07/18 01:54:43;;;;;;;;;7.40;7.20;;;;;22.67;30.99;100161.22;5029800;28;8853;-81
2022/07/18 01:57:11;;;;;;;;;6.20;6.20;;;;;22.63;31.01;100163.16;4996679;28;8870;-76
2022/07/18 01:59:40;;;;;;;;;4.20;4.00;;;;;22.56;30.35;100154.53;4996248;28;8870;-79
2022/07/18 02:02:09;;;;;;;;;6.00;5.00;;;;;22.54;30.83;100160.84;4980556;28;8850;-77
2022/07/18 02:07:24;;;;;;;;;5.00;5.00;;;;;22.47;31.21;100154.06;5068462;28;8883;-77
2022/07/18 02:09:54;;;;;;;;;4.80;4.80;;;;;22.40;30.86;100158.75;5054803;28;8858;-76
2022/07/18 02:12:23;;;;;;;;;6.00;6.00;;;;;22.09;31.26;100153.72;5031436;28;8866;-79
2022/07/18 02:14:52;;;;;;;;;4.80;4.60;;;;;21.72;32.77;100158.63;5048764;28;8854;-77
2022/07/18 02:17:20;;;;;;;;;6.20;6.00;;;;;21.56;32.52;100152.16;5047417;28;8874;-78
2022/07/18 02:19:49;;;;;;;;;5.80;5.00;;;;;21.35;32.66;100153.75;5072211;28;9511;-75
2022/07/18 02:22:18;;;;;;;;;7.20;5.00;;;;;21.27;32.69;100159.31;5088953;28;8927;-76
2022/07/18 02:24:47;;;;;;;;;5.60;5.60;;;;;21.33;32.95;100156.44;5089585;28;8874;-78
2022/07/18 02:27:17;;;;;;;;;5.40;5.40;;;;;21.40;33.11;100165.06;5090961;28;8882;-76
2022/07/18 02:29:46;;;;;;;;;6.00;6.00;;;;;21.45;32.89;100168.44;5091808;28;9681;-76
2022/07/18 02:32:15;;;;;;;;;4.00;4.00;;;;;21.49;33.12;100156.78;5072177;28;8902;-75
2022/07/18 02:34:44;;;;;;;;;4.40;4.40;;;;;21.47;32.77;100161.28;5106915;28;9727;-76
2022/07/18 02:37:13;;;;;;;;;6.40;6.00;;;;;21.49;33.12;100161.25;5124343;27;8852;-76
2022/07/18 02:39:41;;;;;;;;;6.00;6.00;;;;;21.51;33.38;100160.28;5089803;28;8863;-79
2022/07/18 02:42:10;;;;;;;;;7.40;7.40;;;;;21.52;33.42;100164.66;5073019;28;8863;-78
2022/07/18 02:44:40;;;;;;;;;6.00;5.80;;;;;21.53;33.05;100166.41;5088848;28;8904;-76
2022/07/18 02:47:09;;;;;;;;;5.00;5.00;;;;;21.52;33.37;100169.97;5089666;28;8855;-76
2022/07/18 02:49:39;;;;;;;;;7.00;6.60;;;;;21.50;33.50;100170.94;5089090;28;8839;-77
2022/07/18 02:52:09;;;;;;;;;8.40;7.40;;;;;21.50;33.73;100173.59;5090544;28;9662;-76
2022/07/18 02:54:39;;;;;;;;;5.40;5.40;;;;;21.47;33.84;100171.06;5088884;28;8866;-78
2022/07/18 02:57:08;;;;;;;;;6.20;5.00;;;;;21.45;34.07;100179.06;5088870;28;8816;-77
2022/07/18 02:59:36;;;;;;;;;7.80;6.60;;;;;21.41;33.81;100175.59;5088189;27;9010;-76
2022/07/18 03:02:07;;;;;;;;;7.80;6.60;;;;;21.38;33.81;100181.03;5089781;28;9581;-76
2022/07/18 03:04:35;;;;;;;;;7.40;6.40;;;;;21.27;34.01;100177.03;5088858;28;9000;-76
2022/07/18 03:07:04;;;;;;;;;7.00;7.00;;;;;21.14;34.55;100185.41;5088351;28;8877;-76
2022/07/18 03:09:32;;;;;;;;;9.20;7.60;;;;;21.16;34.34;100185.34;5071278;28;8941;-78
2022/07/18 03:12:01;;;;;;;;;6.20;6.20;;;;;21.14;34.32;100188.06;5071332;28;8859;-75
2022/07/18 03:14:30;;;;;;;;;5.20;5.20;;;;;21.13;34.44;100185.44;5122725;27;8939;-78
2022/07/18 03:16:58;;;;;;;;;17.60;17.40;;;;;21.10;33.97;100182.91;5035911;28;8847;-75
2022/07/18 03:19:28;;;;;;;;;12.60;11.60;;;;;21.05;34.04;100179.53;5106799;28;8883;-77
2022/07/18 03:21:57;;;;;;;;;7.00;7.00;;;;;21.05;34.60;100183.06;5108852;28;9630;-76
2022/07/18 03:24:25;;;;;;;;;5.00;5.00;;;;;21.05;34.27;100184.84;5090589;28;8856;-76
2022/07/18 03:26:54;;;;;;;;;5.60;5.60;;;;;21.06;34.29;100191.88;5091784;28;8845;-76
2022/07/18 03:29:23;;;;;;;;;4.60;4.60;;;;;21.09;34.21;100192.63;5108609;28;9559;-76
2022/07/18 03:31:52;;;;;;;;;5.00;4.20;;;;;21.12;33.94;100195.19;5110695;28;8899;-75
2022/07/18 03:34:21;;;;;;;;;4.60;4.60;;;;;21.15;34.22;100192.44;5108126;28;8845;-75
2022/07/18 03:36:51;;;;;;;;;8.20;8.00;;;;;21.07;34.43;100185.66;5075806;28;8964;-76
2022/07/18 03:39:19;;;;;;;;;9.60;9.20;;;;;20.94;34.89;100190.50;5111042;28;8888;-76
2022/07/18 03:41:48;;;;;;;;;10.20;9.80;;;;;20.94;35.04;100198.44;5108763;28;8875;-76
2022/07/18 03:44:16;;;;;;;;;10.80;8.80;;;;;21.02;34.99;100192.00;5092321;28;8848;-77
2022/07/18 03:46:45;;;;;;;;;8.60;8.20;;;;;21.09;35.33;100189.13;5108670;28;8930;-78
2022/07/18 03:49:14;;;;;;;;;9.40;8.80;;;;;21.02;35.59;100191.13;5070508;27;8874;-76
2022/07/18 03:51:43;;;;;;;;;8.80;8.20;;;;;21.06;35.48;100190.09;5087727;28;8831;-77
2022/07/18 03:54:13;;;;;;;;;8.40;8.00;;;;;21.10;35.16;100193.53;5087837;28;8990;-79
2022/07/18 03:56:41;;;;;;;;;8.20;7.00;;;;;21.12;34.80;100192.53;5087600;28;8844;-78
2022/07/18 03:59:10;;;;;;;;;7.00;6.40;;;;;21.20;34.92;100189.63;5087380;28;8930;-76
2022/07/18 04:01:38;;;;;;;;;7.40;7.40;;;;;21.29;34.79;100185.81;5053109;28;8878;-77
2022/07/18 04:04:07;;;;;;;;;9.00;9.00;;;;;21.40;35.44;100191.59;5089318;28;8850;-79
2022/07/18 04:06:36;;;;;;;;;7.80;7.80;;;;;21.52;35.72;100185.88;5101684;28;10190;-77
2022/07/18 04:09:05;;;;;;;;;8.00;8.00;;;;;21.61;35.89;100201.50;5108518;28;8849;-78
2022/07/18 04:11:35;;;;;;;;;8.20;7.40;;;;;21.71;36.29;100199.38;5110372;28;8892;-76
2022/07/18 04:14:03;;;;;;;;;11.80;11.20;;;;;21.73;35.68;100197.53;5108453;28;8911;-78
2022/07/18 04:16:32;;;;;;;;;7.20;7.20;;;;;21.74;35.12;100186.00;5125483;27;8849;-78
2022/07/18 04:19:02;;;;;;;;;9.60;9.00;;;;;21.67;35.92;100195.09;5109157;28;8925;-76
2022/07/18 04:21:30;;;;;;;;;13.40;13.40;;;;;21.83;35.94;100186.56;5091146;28;8926;-77
2022/07/18 04:23:59;;;;;;;;;69.25;57.25;;;;;21.96;35.43;100190.50;5088932;28;9555;-77
2022/07/18 04:26:28;;;;;;;;;8.60;7.60;;;;;21.96;34.65;100193.16;5118903;28;9958;-78
2022/07/18 04:28:58;;;;;;;;;7.20;7.20;;;;;21.91;34.85;100193.34;5113631;28;9089;-78
2022/07/18 04:31:26;;;;;;;;;7.20;7.00;;;;;21.85;34.48;100198.00;5110118;28;8857;-79
2022/07/18 04:33:55;;;;;;;;;7.40;7.00;;;;;21.75;34.26;100190.38;5108312;28;8849;-76
2022/07/18 04:36:25;;;;;;;;;6.80;6.60;;;;;21.68;33.70;100195.94;5105875;28;9007;-76
2022/07/18 04:38:54;;;;;;;;;6.20;6.20;;;;;21.54;34.08;100197.31;5076062;28;8864;-79
2022/07/18 04:41:24;;;;;;;;;7.80;7.80;;;;;21.56;34.42;100190.16;5105165;28;9016;-79
2022/07/18 04:43:53;;;;;;;;;7.00;6.40;;;;;21.77;34.78;100190.31;5036504;28;9612;-78
2022/07/18 04:46:23;;;;;;;;;7.00;7.00;;;;;21.96;34.66;100193.16;5087923;28;8932;-78
2022/07/18 04:48:52;;;;;;;;;7.60;6.60;;;;;22.16;33.00;100200.38;5089791;28;8940;-76
2022/07/18 04:51:21;;;;;;;;;10.00;8.80;;;;;22.15;32.70;100190.69;5077935;28;8962;-78
2022/07/18 04:53:49;;;;;;;;;8.60;8.60;;;;;22.06;33.02;100191.91;5088821;28;9569;-78
2022/07/18 04:56:18;;;;;;;;;6.40;5.60;;;;;22.11;32.04;100195.22;5088811;28;9601;-77
2022/07/18 04:58:47;;;;;;;;;7.40;7.20;;;;;22.13;32.47;100195.19;5089323;28;9010;-77
2022/07/18 05:01:16;;;;;;;;;7.80;7.00;;;;;22.23;32.55;100193.03;5069900;28;8859;-77
2022/07/18 05:03:46;;;;;;;;;8.20;7.80;;;;;22.42;32.08;100190.56;5105343;28;8831;-79
2022/07/18 05:06:14;;;;;;;;;10.40;8.00;;;;;22.61;32.41;100191.59;5088338;28;8856;-79
2022/07/18 05:08:43;;;;;;;;;7.00;7.00;;;;;22.82;32.10;100192.50;5071661;28;8855;-79
2022/07/18 05:11:12;;;;;;;;;7.20;7.00;;;;;23.00;31.65;100198.00;5070303;28;8878;-79
2022/07/18 05:13:40;;;;;;;;;6.80;6.80;;;;;22.69;31.61;100196.59;5105077;28;8875;-77
2022/07/18 05:16:09;;;;;;;;;8.80;7.80;;;;;22.50;32.11;100197.31;5089692;28;8874;-76
2022/07/18 05:18:38;;;;;;;;;5.20;4.40;;;;;22.11;32.71;100205.88;5106534;28;8862;-76
2022/07/18 05:21:08;;;;;;;;;7.00;7.00;;;;;21.86;33.43;100207.72;5106427;28;8880;-77
2022/07/18 05:23:37;;;;;;;;;8.40;8.40;;;;;21.80;34.07;100198.19;5091308;28;8876;-76
2022/07/18 05:26:06;;;;;;;;;6.60;6.60;;;;;21.49;35.01;100198.41;5091984;28;8819;-78
2022/07/18 05:28:34;;;;;;;;;9.00;9.00;;;;;21.27;35.30;100195.59;5121481;27;8825;-78
2022/07/18 05:31:03;;;;;;;;;11.60;9.00;;;;;21.27;35.75;100208.88;5106733;28;9021;-78
2022/07/18 05:33:32;;;;;;;;;7.20;7.20;;;;;21.43;35.26;100212.72;5089456;28;8906;-76
2022/07/18 05:36:05;;;;;;;;;8.80;8.80;;;;;21.53;35.57;100197.38;5100780;27;8853;-79
2022/07/18 05:38:35;;;;;;;;;8.80;8.80;;;;;21.85;35.22;100205.97;5113087;27;8857;-76
2022/07/18 05:41:04;;;;;;;;;9.20;7.80;;;;;21.70;35.98;100202.97;5077996;27;8862;-77
2022/07/18 05:43:32;;;;;;;;;12.00;11.40;;;;;21.72;36.53;100208.19;5126029;27;8851;-78
2022/07/18 05:46:01;;;;;;;;;11.00;9.40;;;;;21.65;36.46;100215.53;5082579;27;8915;-76
2022/07/18 05:48:30;;;;;;;;;10.00;8.40;;;;;21.50;36.92;100216.94;5112216;27;8865;-78
2022/07/18 05:50:58;;;;;;;;;11.00;11.00;;;;;21.58;37.04;100211.34;5101286;27;8856;-78
2022/07/18 05:53:50;;;;;;;;;9.00;9.00;;;;;22.11;35.99;100210.31;5074080;28;8969;-78
2022/07/18 05:56:19;;;;;;;;;7.40;6.20;;;;;22.17;35.81;100210.97;5070852;28;9728;-80
2022/07/18 05:58:47;;;;;;;;;9.00;7.60;;;;;22.31;34.98;100217.56;5053877;28;8908;-77
2022/07/18 06:01:19;;;;;;;;;8.20;6.00;;;;;22.28;34.50;100220.34;5052753;28;8907;-77
2022/07/18 06:03:49;;;;;;;;;5.20;5.20;;;;;22.23;33.00;100217.84;5038473;28;8837;-78
2022/07/18 06:06:18;;;;;;;;;7.00;6.20;;;;;22.28;33.42;100215.03;5069854;28;8988;-73
2022/07/18 06:08:48;;;;;;;;;8.20;7.80;;;;;22.25;33.29;100221.34;5087372;28;8959;-78
2022/07/18 06:11:17;;;;;;;;;7.00;7.00;;;;;22.08;32.46;100221.03;5076646;28;8863;-73
2022/07/18 06:13:46;;;;;;;;;5.80;5.80;;;;;22.07;32.56;100228.16;5113487;28;8861;-76
2022/07/18 06:16:15;;;;;;;;;9.20;8.60;;;;;22.24;32.78;100224.88;5103573;28;8933;-77
2022/07/18 06:18:43;;;;;;;;;7.20;6.60;;;;;22.20;31.59;100233.88;5106744;28;8872;-72
2022/07/18 06:21:12;;;;;;;;;5.80;5.80;;;;;21.96;32.12;100225.03;5089116;28;8941;-78
2022/07/18 06:23:41;;;;;;;;;5.40;5.40;;;;;22.03;31.52;100228.34;5089218;28;8843;-75
2022/07/18 06:26:11;;;;;;;;;7.60;7.00;;;;;22.12;31.84;100226.22;5089595;28;8956;-75
2022/07/18 06:28:40;;;;;;;;;8.00;7.00;;;;;21.83;32.40;100224.59;5089420;28;8863;-79
2022/07/18 06:31:16;;;;;;;;;9.60;9.40;;;;;21.89;33.16;100220.84;5090538;28;8835;-71
2022/07/18 06:33:45;;;;;;;;;6.20;6.20;;;;;22.27;32.91;100219.47;5102257;28;8836;-77
2022/07/18 06:36:13;;;;;;;;;6.40;6.40;;;;;22.42;32.65;100211.81;5108746;28;9506;-77
2022/07/18 06:38:42;;;;;;;;;1.80;1.60;;;;;22.29;32.17;100217.63;5099048;27;8860;-78
2022/07/18 06:41:12;;;;;;;;;12.20;11.00;;;;;22.68;32.17;100224.97;5091675;28;8843;-76
2022/07/18 06:43:41;;;;;;;;;17.60;17.60;;;;;22.87;32.19;100219.78;5085166;28;8853;-77
2022/07/18 06:46:10;;;;;;;;;9.00;8.60;;;;;23.20;31.53;100219.34;5099148;28;8849;-77
2022/07/18 06:48:39;;;;;;;;;11.00;8.00;;;;;23.39;30.72;100219.44;5110479;28;8907;-76
2022/07/18 06:51:08;;;;;;;;;7.20;6.80;;;;;23.66;30.17;100221.84;5090866;28;9563;-77
2022/07/18 06:53:37;;;;;;;;;9.00;8.20;;;;;24.01;29.46;100217.63;5121675;27;9714;-75
2022/07/18 06:56:06;;;;;;;;;7.00;7.00;;;;;24.40;28.95;100216.69;5079349;28;8843;-75
2022/07/18 06:58:36;;;;;;;;;7.60;7.00;;;;;24.78;29.44;100224.69;5088798;28;8849;-77
2022/07/18 07:01:06;;;;;;;;;6.80;5.60;;;;;24.97;28.33;100215.81;5109948;28;9029;-77
2022/07/18 07:03:35;;;;;;;;;9.20;8.60;;;;;25.24;28.26;100216.28;5090457;28;8899;-75
2022/07/18 07:06:04;;;;;;;;;11.20;10.00;;;;;25.51;28.44;100216.66;5107249;28;8884;-75
2022/07/18 07:08:33;;;;;;;;;10.20;10.20;;;;;25.72;28.77;100211.13;5109788;28;8883;-78
2022/07/18 07:11:02;;;;;;;;;9.00;9.00;;;;;25.97;28.35;100216.91;5077669;28;9551;-76
2022/07/18 07:13:31;;;;;;;;;8.00;8.00;;;;;26.17;27.38;100209.66;5107484;28;8856;-75
2022/07/18 07:16:01;;;;;;;;;0.40;0.40;;;;;26.23;28.33;100218.19;5109176;28;8857;-77
2022/07/18 07:18:30;;;;;;;;;11.00;10.00;;;;;26.42;27.59;100207.31;5108877;28;9799;-77
2022/07/18 07:20:58;;;;;;;;;9.00;9.00;;;;;26.63;27.58;100210.66;5107826;28;8853;-79
2022/07/18 07:23:27;;;;;;;;;10.40;9.80;;;;;26.77;27.71;100212.53;5108644;28;8861;-78
2022/07/18 07:25:56;;;;;;;;;9.80;8.80;;;;;26.93;27.64;100212.50;5122831;27;8875;-75
2022/07/18 07:28:24;;;;;;;;;8.40;7.40;;;;;26.95;27.23;100209.75;5086571;28;8897;-77
2022/07/18 07:30:53;;;;;;;;;8.40;7.60;;;;;27.07;26.24;100202.81;5052696;28;8869;-77
2022/07/18 07:33:23;;;;;;;;;7.00;7.00;;;;;27.16;26.27;100200.44;5085969;28;8865;-77
2022/07/18 07:35:51;;;;;;;;;9.80;9.80;;;;;27.16;26.60;100210.31;5084990;28;8946;-78
2022/07/18 07:38:22;;;;;;;;;8.80;8.80;;;;;27.31;28.60;100208.56;5085244;28;8854;-78
2022/07/18 07:40:52;;;;;;;;;9.40;9.40;;;;;27.38;29.01;100208.13;5065150;28;8959;-77
2022/07/18 07:43:21;;;;;;;;;9.80;9.60;;;;;27.17;30.96;100206.69;5052066;28;8930;-77
2022/07/18 07:45:50;;;;;;;;;9.80;9.80;;;;;27.14;31.42;100206.84;5086664;28;8885;-79
2022/07/18 07:48:19;;;;;;;;;11.00;11.00;;;;;27.09;31.89;100216.97;5056400;28;8864;-80
2022/07/18 07:50:50;;;;;;;;;8.60;8.20;;;;;26.95;31.86;100215.09;5087595;28;8878;-77
2022/07/18 07:53:19;;;;;;;;;12.60;12.00;;;;;27.04;31.94;100217.25;5069587;28;8874;-78
2022/07/18 07:55:47;;;;;;;;;13.20;12.40;;;;;26.81;32.00;100218.59;5049056;28;9613;-79
2022/07/18 07:58:16;;;;;;;;;14.20;13.80;;;;;26.96;31.84;100222.19;5031884;28;8848;-80
2022/07/18 08:00:45;;;;;;;;;14.00;14.00;;;;;26.93;31.44;100217.88;5054517;28;8990;-80
2022/07/18 08:03:14;;;;;;;;;16.00;16.00;;;;;27.00;31.21;100216.56;5073648;28;8852;-80
2022/07/18 08:05:47;;;;;;;;;12.00;12.00;;;;;27.09;30.96;100211.63;5088292;28;8980;-80
2022/07/18 08:08:18;;;;;;;;;14.60;14.00;;;;;27.17;30.93;100214.72;5089554;28;9617;-78
2022/07/18 08:10:48;;;;;;;;;15.80;15.20;;;;;27.27;30.44;100223.09;5122365;27;8832;-81
2022/07/18 08:13:16;;;;;;;;;14.20;13.00;;;;;27.32;30.23;100213.00;5109034;27;8910;-80
2022/07/18 08:15:45;;;;;;;;;14.20;13.60;;;;;27.42;30.01;100214.16;5087660;28;8972;-79
2022/07/18 08:18:13;;;;;;;;;11.20;11.20;;;;;27.50;28.77;100219.03;5092390;27;8983;-80
2022/07/18 08:20:42;;;;;;;;;10.60;9.80;;;;;27.51;28.25;100216.28;5108996;27;8869;-81
2022/07/18 08:23:12;;;;;;;;;8.20;8.00;;;;;27.46;26.64;100204.97;5110429;27;8845;-80
2022/07/18 08:25:45;;;;;;;;;5.40;5.40;;;;;27.47;26.21;100214.75;5127586;27;8904;-80
2022/07/18 08:28:15;;;;;;;;;8.20;8.00;;;;;27.59;27.37;100210.44;5114827;27;8894;-83
2022/07/18 08:30:44;;;;;;;;;11.00;9.60;;;;;27.60;26.94;100214.88;5103398;28;8852;-81
2022/07/18 08:33:12;;;;;;;;;8.80;8.00;;;;;27.61;26.50;100209.41;5052074;27;8992;-83
2022/07/18 08:35:41;;;;;;;;;10.40;10.00;;;;;27.72;26.95;100208.75;5107902;28;8832;-81
2022/07/18 08:38:10;;;;;;;;;7.00;7.00;;;;;27.81;25.92;100215.38;5093276;27;8941;-79
2022/07/18 08:40:39;;;;;;;;;8.00;8.00;;;;;27.86;25.57;100210.56;5092990;27;8874;-79
2022/07/18 08:43:09;;;;;;;;;7.60;7.60;;;;;27.85;25.57;100199.97;5104996;27;8981;-85
2022/07/18 08:45:52;;;;;;;;;5.80;5.80;;;;;27.69;25.88;100202.72;5087576;28;8841;-81
2022/07/18 08:48:21;;;;;;;;;6.00;5.00;;;;;27.84;24.99;100204.44;5090384;28;8869;-82
2022/07/18 08:50:50;;;;;;;;;5.00;5.00;;;;;27.80;24.59;100208.28;5107732;28;9018;-82
2022/07/18 08:53:20;;;;;;;;;6.00;6.00;;;;;27.83;24.40;100200.06;5093698;28;9070;-82
2022/07/18 08:55:50;;;;;;;;;5.80;5.20;;;;;27.92;24.45;100202.19;5100063;28;8966;-80
2022/07/18 08:58:20;;;;;;;;;5.60;5.60;;;;;27.98;24.22;100207.16;5103250;28;8853;-82
2022/07/18 09:01:08;;;;;;;;;6.40;6.40;;;;;28.13;24.36;100201.81;5063745;28;8836;-80
2022/07/18 09:03:37;;;;;;;;;5.00;5.00;;;;;28.13;24.03;100207.19;5083857;28;8854;-79
2022/07/18 09:06:08;;;;;;;;;4.00;4.00;;;;;28.24;23.50;100203.78;5057688;28;8885;-80
2022/07/18 09:08:38;;;;;;;;;4.80;4.80;;;;;28.29;23.82;100204.38;5083653;28;8953;-79
2022/07/18 09:11:11;;;;;;;;;6.00;5.00;;;;;28.41;22.95;100203.56;5076436;28;8888;-80
2022/07/18 09:14:01;;;;;;;;;3.40;3.40;;;;;28.53;23.70;100197.44;5088702;28;8939;-80
2022/07/18 09:16:30;;;;;;;;;4.80;4.80;;;;;28.54;22.64;100198.31;5073198;28;8857;-81
2022/07/18 09:19:07;;;;;;;;;8.20;8.00;;;;;28.64;22.69;100198.56;5057002;28;8877;-80
2022/07/18 09:21:38;;;;;;;;;3.80;3.80;;;;;28.60;22.08;100197.91;5071835;28;8844;-80
2022/07/18 09:24:07;;;;;;;;;6.60;6.00;;;;;28.73;22.03;100190.78;5056681;28;9062;-74
2022/07/18 09:26:39;;;;;;;;;4.00;4.00;;;;;28.77;21.02;100196.78;5053542;28;9904;-73
2022/07/18 09:29:16;;;;;;;;;6.60;5.80;;;;;28.77;21.99;100196.78;5068342;28;9621;-73
2022/07/18 09:31:56;;;;;;;;;4.60;3.80;;;;;28.84;22.24;100195.44;5094891;28;8931;-74
2022/07/18 09:34:36;;;;;;;;;4.00;4.00;;;;;28.93;22.36;100189.44;5110324;28;8856;-73
2022/07/18 09:37:06;;;;;;;;;4.80;4.80;;;;;28.97;21.82;100188.28;5074347;28;9028;-73
2022/07/18 09:39:35;;;;;;;;;2.80;2.80;;;;;28.94;21.46;100199.25;5109178;28;8856;-72
2022/07/18 09:42:16;;;;;;;;;3.80;3.80;;;;;28.97;21.84;100192.78;5109801;28;8853;-73
2022/07/18 09:44:58;;;;;;;;;3.20;3.20;;;;;28.94;21.58;100187.63;5105282;28;8839;-73
2022/07/18 09:47:26;;;;;;;;;5.60;3.00;;;;;28.98;21.49;100194.53;5108741;28;8887;-74
2022/07/18 09:49:56;;;;;;;;;3.20;3.20;;;;;28.93;21.03;100184.06;5111166;28;8856;-74
2022/07/18 09:52:24;;;;;;;;;5.20;5.00;;;;;29.03;22.23;100194.22;5092428;28;8880;-73
2022/07/18 09:55:05;;;;;;;;;4.00;4.00;;;;;28.94;20.84;100177.75;5111253;28;8857;-73
2022/07/18 09:57:35;;;;;;;;;4.20;4.20;;;;;28.15;21.81;100178.44;5110763;28;8945;-74
2022/07/18 10:00:07;;;;;;;;;4.00;4.00;;;;;28.21;22.55;100187.91;5110304;28;8861;-71
2022/07/18 10:02:40;;;;;;;;;3.40;3.40;;;;;28.34;22.24;100187.03;5060458;28;8848;-73
2022/07/18 10:05:10;;;;;;;;;5.20;5.20;;;;;28.37;23.27;100191.31;5091216;28;8853;-74
2022/07/18 10:07:39;;;;;;;;;4.80;4.40;;;;;28.57;23.26;100182.88;5109129;28;8860;-74
2022/07/18 10:10:09;;;;;;;;;3.00;3.00;;;;;28.63;22.47;100184.28;5110501;28;8917;-73
2022/07/18 10:12:38;;;;;;;;;5.80;5.80;;;;;28.58;22.33;100187.28;5073866;28;8853;-73
2022/07/18 10:15:09;;;;;;;;;3.60;3.60;;;;;28.78;22.95;100180.59;5073532;28;8951;-73
2022/07/18 10:17:39;;;;;;;;;3.80;3.80;;;;;28.75;21.95;100185.28;5059847;28;8880;-73
2022/07/18 10:20:09;;;;;;;;;4.00;3.60;;;;;28.82;21.90;100173.19;5109419;28;8920;-73
2022/07/18 10:22:42;;;;;;;;;2.00;2.00;;;;;28.84;21.59;100186.53;5073312;28;8999;-74
2022/07/18 10:25:11;;;;;;;;;4.00;4.00;;;;;28.90;21.67;100173.56;5107236;28;8856;-71
2022/07/18 10:27:50;;;;;;;;;4.00;4.00;;;;;29.04;22.32;100175.31;5110322;28;8976;-72
2022/07/18 10:30:30;;;;;;;;;3.80;3.80;;;;;29.27;22.29;100164.84;5109814;28;9697;-73
2022/07/18 10:33:00;;;;;;;;;3.40;3.40;;;;;29.41;21.83;100164.75;5109429;28;8873;-73
2022/07/18 10:36:08;;;;;;;;;4.00;4.00;;;;;29.44;22.26;100159.16;5068709;28;8958;-73
2022/07/18 10:39:07;;;;;;;;;3.40;3.40;;;;;29.55;22.13;100164.66;5057013;28;8844;-72
2022/07/18 10:42:13;;;;;;;;;4.00;4.00;;;;;29.39;22.62;100161.31;5066326;28;8855;-73
2022/07/18 10:44:42;;;;;;;;;5.00;4.60;;;;;29.49;22.02;100165.09;5032759;28;8907;-73
2022/07/18 10:47:17;;;;;;;;;4.80;4.00;;;;;29.43;21.46;100159.28;5032962;28;8856;-73
2022/07/18 10:50:05;;;;;;;;;5.00;4.80;;;;;29.58;21.22;100162.72;5065731;28;8860;-74
2022/07/18 10:53:02;;;;;;;;;3.20;3.20;;;;;29.55;21.00;100148.53;5049437;28;8949;-74
2022/07/18 10:55:47;;;;;;;;;3.00;3.00;;;;;29.50;21.34;100153.34;5065912;28;8937;-73
2022/07/18 10:58:20;;;;;;;;;4.40;3.60;;;;;29.61;21.17;100152.63;5066007;28;8856;-72
2022/07/18 11:00:52;;;;;;;;;5.40;5.40;;;;;29.83;21.41;100145.72;5065411;28;8937;-71
2022/07/18 11:03:28;;;;;;;;;4.40;4.40;;;;;30.04;21.98;100149.59;5065967;28;8864;-74
2022/07/18 11:05:58;;;;;;;;;5.00;5.00;;;;;30.22;21.28;100149.22;5065227;28;8880;-72
2022/07/18 11:08:31;;;;;;;;;6.40;6.40;;;;;30.40;22.06;100149.75;5064856;28;8932;-73
2022/07/18 11:11:15;;;;;;;;;4.00;4.00;;;;;30.47;21.42;100148.28;5047535;28;8872;-72
2022/07/18 11:13:49;;;;;;;;;3.80;3.60;;;;;30.69;20.37;100145.72;5065668;28;9084;-72
2022/07/18 11:16:21;;;;;;;;;6.00;5.40;;;;;30.80;20.03;100144.06;5090782;28;8856;-73
2022/07/18 11:19:21;;;;;;;;;4.40;4.20;;;;;30.89;20.24;100140.69;5108509;28;8849;-73
2022/07/18 11:22:07;;;;;;;;;3.80;3.80;;;;;31.13;19.43;100135.25;5109166;28;8879;-74
2022/07/18 11:24:36;;;;;;;;;5.80;4.60;;;;;31.35;19.46;100129.06;5072065;28;8845;-72
2022/07/18 11:27:06;;;;;;;;;3.80;3.80;;;;;31.60;19.99;100130.72;5108477;28;8873;-73
2022/07/18 11:29:41;;;;;;;;;7.60;6.60;;;;;31.82;20.40;100124.47;5123469;27;8980;-74
2022/07/18 11:32:10;;;;;;;;;8.20;6.80;;;;;31.98;20.49;100121.38;5107265;28;8845;-74
2022/07/18 11:34:50;;;;;;;;;6.00;6.00;;;;;32.11;19.61;100125.81;5107999;27;8876;-73
2022/07/18 11:37:19;;;;;;;;;4.80;4.80;;;;;32.18;19.09;100118.94;5089383;28;8857;-73
2022/07/18 11:39:48;;;;;;;;;5.00;5.00;;;;;32.35;19.16;100113.00;5105781;28;8851;-73
2022/07/18 11:42:18;;;;;;;;;7.60;5.60;;;;;32.36;19.15;100109.31;5097478;28;8934;-73
2022/07/18 11:44:57;;;;;;;;;4.60;4.60;;;;;31.95;19.50;100105.47;5104889;28;8841;-71
2022/07/18 11:47:26;;;;;;;;;7.80;7.80;;;;;31.92;20.90;100105.69;5108453;28;8864;-75
2022/07/18 11:49:57;;;;;;;;;6.00;6.00;;;;;32.07;19.45;100100.09;5107668;28;8849;-74
2022/07/18 11:52:26;;;;;;;;;5.20;5.20;;;;;32.49;19.39;100101.06;5107516;28;8845;-72
2022/07/18 11:55:01;;;;;;;;;5.80;5.80;;;;;32.65;18.52;100097.97;5108355;28;8891;-73